createdAt,value
2023-05-14T00:00:01.676Z,84
2023-05-14T00:00:33.201Z,84
2023-05-14T00:01:05.254Z,84
2023-05-14T00:01:34.775Z,84
2023-05-14T00:01:52.791Z,85
2023-05-14T00:02:26.305Z,85
2023-05-14T00:02:42.450Z,85
2023-05-14T00:03:12.921Z,85
2023-05-14T00:03:33.936Z,85
2023-05-14T00:04:00.831Z,85
2023-05-14T00:04:32.527Z,85
2023-05-14T00:05:05.492Z,85
2023-05-14T00:05:33.909Z,85
2023-05-14T00:05:52.272Z,85
2023-05-14T00:06:25.214Z,85
2023-05-14T00:06:41.798Z,85
2023-05-14T00:07:13.201Z,85
2023-05-14T00:07:34.156Z,85
2023-05-14T00:08:00.690Z,85
2023-05-14T00:08:32.284Z,85
2023-05-14T00:09:04.248Z,85
2023-05-14T00:09:34.150Z,85
2023-05-14T00:09:52.522Z,84
2023-05-14T00:10:25.494Z,84
2023-05-14T00:10:41.808Z,84
2023-05-14T00:11:12.758Z,84
2023-05-14T00:11:34.438Z,83
2023-05-14T00:12:01.295Z,83
2023-05-14T00:12:33.136Z,83
2023-05-14T00:13:04.261Z,82
2023-05-14T00:13:34.627Z,82
2023-05-14T00:13:52.200Z,82
2023-05-14T00:14:24.630Z,82
2023-05-14T00:14:42.408Z,82
2023-05-14T00:15:13.351Z,82
2023-05-14T00:15:34.650Z,82
2023-05-14T00:16:00.630Z,82
2023-05-14T00:16:32.371Z,82
2023-05-14T00:17:05.216Z,82
2023-05-14T00:17:34.362Z,82
2023-05-14T00:17:52.260Z,82
2023-05-14T00:18:24.681Z,82
2023-05-14T00:18:41.561Z,82
2023-05-14T00:19:13.266Z,82
2023-05-14T00:19:36.945Z,82
2023-05-14T00:20:00.957Z,82
2023-05-14T00:20:32.334Z,81
2023-05-14T00:21:04.249Z,81
2023-05-14T00:21:33.763Z,82
2023-05-14T00:21:52.218Z,81
2023-05-14T00:22:30.377Z,81
2023-05-14T00:22:34.651Z,81
2023-05-14T00:22:57.265Z,82
2023-05-14T00:23:28.197Z,82
2023-05-14T00:24:00.714Z,81
2023-05-14T00:24:32.217Z,81
2023-05-14T00:25:04.279Z,81
2023-05-14T00:25:33.745Z,81
2023-05-14T00:25:53.227Z,81
2023-05-14T00:26:24.661Z,81
2023-05-14T00:26:41.458Z,81
2023-05-14T00:27:12.612Z,81
2023-05-14T00:27:33.768Z,81
2023-05-14T00:28:01.461Z,81
2023-05-14T00:28:32.190Z,81
2023-05-14T00:29:06.693Z,81
2023-05-14T00:29:33.754Z,81
2023-05-14T00:29:52.204Z,81
2023-05-14T00:30:24.864Z,81
2023-05-14T00:30:41.588Z,81
2023-05-14T00:31:13.278Z,81
2023-05-14T00:31:33.798Z,81
2023-05-14T00:32:00.846Z,81
2023-05-14T00:32:32.224Z,81
2023-05-14T00:33:04.289Z,81
2023-05-14T00:33:34.275Z,81
2023-05-14T00:33:52.583Z,81
2023-05-14T00:34:26.475Z,81
2023-05-14T00:34:56.273Z,81
2023-05-14T00:35:29.427Z,81
2023-05-14T00:36:00.766Z,81
2023-05-14T00:36:33.239Z,81
2023-05-14T00:37:04.188Z,81
2023-05-14T00:37:34.629Z,81
2023-05-14T00:37:53.112Z,81
2023-05-14T00:38:24.628Z,81
2023-05-14T00:38:42.372Z,81
2023-05-14T00:39:12.636Z,81
2023-05-14T00:39:34.471Z,82
2023-05-14T00:40:00.811Z,81
2023-05-14T00:40:32.505Z,81
2023-05-14T00:41:05.050Z,81
2023-05-14T00:41:33.833Z,81
2023-05-14T00:41:52.683Z,82
2023-05-14T00:42:24.657Z,82
2023-05-14T00:42:41.419Z,82
2023-05-14T00:43:13.113Z,82
2023-05-14T00:43:33.804Z,82
2023-05-14T00:44:00.669Z,81
2023-05-14T00:44:32.195Z,81
2023-05-14T00:45:04.300Z,82
2023-05-14T00:45:33.802Z,81
2023-05-14T00:45:52.184Z,81
2023-05-14T00:46:25.177Z,81
2023-05-14T00:46:42.728Z,81
2023-05-14T00:47:12.748Z,82
2023-05-14T00:47:33.808Z,81
2023-05-14T00:48:00.743Z,82
2023-05-14T00:48:33.147Z,82
2023-05-14T00:49:04.182Z,82
2023-05-14T00:49:34.749Z,82
2023-05-14T00:49:52.132Z,82
2023-05-14T00:50:24.861Z,82
2023-05-14T00:50:43.463Z,82
2023-05-14T00:51:12.554Z,82
2023-05-14T00:51:33.796Z,82
2023-05-14T00:52:00.888Z,82
2023-05-14T00:52:32.196Z,82
2023-05-14T00:53:05.316Z,82
2023-05-14T00:53:33.765Z,82
2023-05-14T00:53:52.247Z,82
2023-05-14T00:54:24.684Z,82
2023-05-14T00:54:41.526Z,82
2023-05-14T00:55:13.146Z,82
2023-05-14T00:55:33.804Z,82
2023-05-14T00:56:00.658Z,82
2023-05-14T00:56:33.736Z,82
2023-05-14T00:57:04.211Z,82
2023-05-14T00:57:33.740Z,82
2023-05-14T00:57:52.215Z,82
2023-05-14T00:58:25.090Z,82
2023-05-14T00:58:41.465Z,82
2023-05-14T00:59:13.079Z,82
2023-05-14T00:59:33.750Z,82
2023-05-14T01:00:03.459Z,82
2023-05-14T01:00:33.198Z,83
2023-05-14T01:01:04.354Z,83
2023-05-14T01:01:34.901Z,83
2023-05-14T01:01:52.178Z,83
2023-05-14T01:02:24.790Z,83
2023-05-14T01:02:42.488Z,83
2023-05-14T01:03:12.685Z,83
2023-05-14T01:03:33.861Z,83
2023-05-14T01:04:00.723Z,83
2023-05-14T01:04:32.239Z,83
2023-05-14T01:05:05.071Z,83
2023-05-14T01:05:34.288Z,84
2023-05-14T01:05:52.137Z,84
2023-05-14T01:06:24.618Z,84
2023-05-14T01:06:41.421Z,84
2023-05-14T01:07:13.073Z,84
2023-05-14T01:07:34.302Z,84
2023-05-14T01:08:00.663Z,84
2023-05-14T01:08:32.197Z,84
2023-05-14T01:09:04.135Z,84
2023-05-14T01:09:33.760Z,84
2023-05-14T01:09:52.177Z,84
2023-05-14T01:10:25.452Z,84
2023-05-14T01:10:41.563Z,85
2023-05-14T01:11:12.682Z,85
2023-05-14T01:11:33.750Z,85
2023-05-14T01:12:00.903Z,85
2023-05-14T01:12:33.129Z,85
2023-05-14T01:13:04.330Z,85
2023-05-14T01:13:34.644Z,85
2023-05-14T01:13:52.141Z,85
2023-05-14T01:14:24.783Z,85
2023-05-14T01:14:42.756Z,85
2023-05-14T01:15:12.632Z,85
2023-05-14T01:15:34.322Z,85
2023-05-14T01:16:00.690Z,85
2023-05-14T01:16:32.215Z,85
2023-05-14T01:17:05.064Z,86
2023-05-14T01:17:34.177Z,86
2023-05-14T01:17:52.166Z,86
2023-05-14T01:18:24.734Z,86
2023-05-14T01:18:41.388Z,86
2023-05-14T01:19:13.235Z,86
2023-05-14T01:19:33.805Z,86
2023-05-14T01:20:01.063Z,86
2023-05-14T01:20:32.240Z,86
2023-05-14T01:21:04.123Z,86
2023-05-14T01:21:33.815Z,86
2023-05-14T01:21:52.126Z,86
2023-05-14T01:22:25.071Z,86
2023-05-14T01:22:41.557Z,86
2023-05-14T01:23:12.632Z,86
2023-05-14T01:23:34.320Z,86
2023-05-14T01:24:00.628Z,86
2023-05-14T01:24:33.248Z,86
2023-05-14T01:25:04.189Z,87
2023-05-14T01:25:34.638Z,87
2023-05-14T01:25:52.176Z,87
2023-05-14T01:26:24.669Z,87
2023-05-14T01:26:42.250Z,87
2023-05-14T01:27:12.598Z,87
2023-05-14T01:27:33.770Z,87
2023-05-14T01:28:00.773Z,87
2023-05-14T01:28:32.131Z,87
2023-05-14T01:29:05.279Z,87
2023-05-14T01:29:33.779Z,87
2023-05-14T01:29:52.147Z,87
2023-05-14T01:30:24.937Z,87
2023-05-14T01:30:41.471Z,87
2023-05-14T01:31:12.980Z,88
2023-05-14T01:31:33.987Z,88
2023-05-14T01:32:00.718Z,88
2023-05-14T01:32:32.222Z,88
2023-05-14T01:33:04.233Z,88
2023-05-14T01:33:33.745Z,88
2023-05-14T01:33:52.217Z,88
2023-05-14T01:34:25.249Z,88
2023-05-14T01:34:41.720Z,88
2023-05-14T01:35:12.588Z,88
2023-05-14T01:35:33.805Z,88
2023-05-14T01:36:01.125Z,88
2023-05-14T01:36:33.155Z,88
2023-05-14T01:37:04.132Z,88
2023-05-14T01:37:34.636Z,88
2023-05-14T01:37:52.126Z,88
2023-05-14T01:38:24.701Z,88
2023-05-14T01:38:42.456Z,88
2023-05-14T01:39:12.592Z,88
2023-05-14T01:39:33.880Z,88
2023-05-14T01:40:01.028Z,88
2023-05-14T01:40:32.314Z,88
2023-05-14T01:41:05.932Z,88
2023-05-14T01:41:33.735Z,88
2023-05-14T01:41:52.139Z,88
2023-05-14T01:42:24.570Z,88
2023-05-14T01:42:41.327Z,88
2023-05-14T01:43:13.136Z,88
2023-05-14T01:43:34.071Z,88
2023-05-14T01:44:00.636Z,88
2023-05-14T01:44:32.151Z,88
2023-05-14T01:45:04.439Z,88
2023-05-14T01:45:34.105Z,88
2023-05-14T01:45:52.321Z,88
2023-05-14T01:46:25.064Z,88
2023-05-14T01:46:41.603Z,88
2023-05-14T01:47:12.698Z,88
2023-05-14T01:47:34.008Z,88
2023-05-14T01:48:01.230Z,88
2023-05-14T01:48:33.137Z,88
2023-05-14T01:49:04.130Z,88
2023-05-14T01:49:34.734Z,88
2023-05-14T01:49:52.182Z,88
2023-05-14T01:50:24.792Z,88
2023-05-14T01:50:42.298Z,88
2023-05-14T01:51:12.557Z,88
2023-05-14T01:51:34.283Z,88
2023-05-14T01:52:00.490Z,89
2023-05-14T01:52:32.128Z,88
2023-05-14T01:53:05.031Z,89
2023-05-14T01:53:33.787Z,89
2023-05-14T01:53:52.188Z,89
2023-05-14T01:54:24.843Z,89
2023-05-14T01:54:41.377Z,89
2023-05-14T01:55:13.029Z,89
2023-05-14T01:55:33.958Z,89
2023-05-14T01:56:00.633Z,89
2023-05-14T01:56:32.189Z,89
2023-05-14T01:57:04.141Z,89
2023-05-14T01:57:33.817Z,89
2023-05-14T01:57:52.093Z,89
2023-05-14T01:58:25.068Z,89
2023-05-14T01:58:41.529Z,89
2023-05-14T01:59:12.580Z,89
2023-05-14T01:59:33.790Z,89
2023-05-14T02:00:01.080Z,89
2023-05-14T02:00:33.106Z,89
2023-05-14T02:01:04.170Z,90
2023-05-14T02:01:34.895Z,89
2023-05-14T02:01:52.162Z,89
2023-05-14T02:02:24.375Z,89
2023-05-14T02:02:42.226Z,90
2023-05-14T02:03:12.506Z,90
2023-05-14T02:03:35.462Z,90
2023-05-14T02:04:00.776Z,90
2023-05-14T02:04:32.085Z,90
2023-05-14T02:05:06.948Z,90
2023-05-14T02:05:34.093Z,90
2023-05-14T02:05:52.081Z,90
2023-05-14T02:06:24.534Z,89
2023-05-14T02:06:41.386Z,89
2023-05-14T02:07:13.044Z,89
2023-05-14T02:07:33.854Z,90
2023-05-14T02:08:00.427Z,90
2023-05-14T02:08:32.336Z,90
2023-05-14T02:09:04.222Z,90
2023-05-14T02:09:33.778Z,90
2023-05-14T02:09:52.131Z,90
2023-05-14T02:10:25.262Z,90
2023-05-14T02:10:41.552Z,90
2023-05-14T02:11:12.328Z,89
2023-05-14T02:11:33.962Z,89
2023-05-14T02:12:00.580Z,89
2023-05-14T02:12:33.047Z,89
2023-05-14T02:13:04.136Z,89
2023-05-14T02:13:36.362Z,89
2023-05-14T02:14:08.112Z,89
2023-05-14T02:14:34.056Z,89
2023-05-14T02:14:56.182Z,89
2023-05-14T02:15:28.350Z,89
2023-05-14T02:16:00.593Z,89
2023-05-14T02:16:32.157Z,89
2023-05-14T02:17:05.007Z,89
2023-05-14T02:17:33.845Z,89
2023-05-14T02:17:52.154Z,89
2023-05-14T02:18:24.630Z,89
2023-05-14T02:18:41.372Z,89
2023-05-14T02:19:13.202Z,89
2023-05-14T02:19:33.959Z,89
2023-05-14T02:20:00.658Z,89
2023-05-14T02:20:32.143Z,89
2023-05-14T02:21:04.252Z,90
2023-05-14T02:21:33.826Z,90
2023-05-14T02:21:52.070Z,90
2023-05-14T02:22:25.099Z,90
2023-05-14T02:22:41.492Z,90
2023-05-14T02:23:12.408Z,90
2023-05-14T02:23:41.152Z,90
2023-05-14T02:24:00.456Z,90
2023-05-14T02:24:33.036Z,90
2023-05-14T02:25:04.145Z,90
2023-05-14T02:25:35.295Z,90
2023-05-14T02:25:52.113Z,90
2023-05-14T02:26:25.033Z,90
2023-05-14T02:26:42.107Z,90
2023-05-14T02:27:12.407Z,90
2023-05-14T02:27:34.558Z,90
2023-05-14T02:28:00.527Z,90
2023-05-14T02:28:32.102Z,90
2023-05-14T02:29:05.083Z,90
2023-05-14T02:29:33.827Z,90
2023-05-14T02:29:52.160Z,90
2023-05-14T02:30:24.895Z,90
2023-05-14T02:30:41.438Z,90
2023-05-14T02:31:13.147Z,90
2023-05-14T02:31:33.836Z,90
2023-05-14T02:32:00.489Z,90
2023-05-14T02:32:32.178Z,90
2023-05-14T02:33:04.346Z,90
2023-05-14T02:33:33.836Z,90
2023-05-14T02:33:52.240Z,90
2023-05-14T02:34:25.300Z,90
2023-05-14T02:34:41.599Z,90
2023-05-14T02:35:12.478Z,90
2023-05-14T02:35:33.934Z,90
2023-05-14T02:36:00.418Z,90
2023-05-14T02:36:32.833Z,90
2023-05-14T02:37:04.136Z,90
2023-05-14T02:37:34.835Z,90
2023-05-14T02:37:52.087Z,90
2023-05-14T02:38:24.524Z,90
2023-05-14T02:38:42.303Z,90
2023-05-14T02:39:12.051Z,90
2023-05-14T02:39:34.294Z,90
2023-05-14T02:40:00.151Z,90
2023-05-14T02:40:32.113Z,91
2023-05-14T02:41:04.838Z,91
2023-05-14T02:41:33.898Z,91
2023-05-14T02:41:52.094Z,91
2023-05-14T02:42:24.454Z,91
2023-05-14T02:42:41.351Z,91
2023-05-14T02:43:13.148Z,91
2023-05-14T02:43:35.538Z,91
2023-05-14T02:44:00.129Z,91
2023-05-14T02:44:32.102Z,91
2023-05-14T02:45:04.210Z,91
2023-05-14T02:45:33.809Z,91
2023-05-14T02:45:52.230Z,91
2023-05-14T02:46:25.220Z,91
2023-05-14T02:46:41.796Z,91
2023-05-14T02:47:12.352Z,91
2023-05-14T02:47:36.120Z,91
2023-05-14T02:48:00.423Z,91
2023-05-14T02:48:32.926Z,91
2023-05-14T02:49:04.108Z,91
2023-05-14T02:49:35.361Z,91
2023-05-14T02:50:07.519Z,91
2023-05-14T02:50:24.679Z,91
2023-05-14T02:50:43.312Z,91
2023-05-14T02:51:12.382Z,91
2023-05-14T02:51:34.117Z,91
2023-05-14T02:52:00.323Z,91
2023-05-14T02:52:32.126Z,91
2023-05-14T02:53:04.982Z,91
2023-05-14T02:53:33.905Z,92
2023-05-14T02:53:52.170Z,92
2023-05-14T02:54:24.167Z,92
2023-05-14T02:54:41.305Z,92
2023-05-14T02:55:13.181Z,92
2023-05-14T02:55:33.880Z,92
2023-05-14T02:56:00.114Z,92
2023-05-14T02:56:32.090Z,92
2023-05-14T02:57:04.079Z,92
2023-05-14T02:57:33.880Z,92
2023-05-14T02:57:52.124Z,92
2023-05-14T02:58:28.893Z,92
2023-05-14T02:58:56.033Z,92
2023-05-14T02:59:28.122Z,92
2023-05-14T03:00:00.090Z,92
2023-05-14T03:00:32.178Z,92
2023-05-14T03:01:04.355Z,92
2023-05-14T03:01:33.792Z,92
2023-05-14T03:01:52.989Z,92
2023-05-14T03:02:24.095Z,92
2023-05-14T03:02:41.442Z,92
2023-05-14T03:03:12.067Z,92
2023-05-14T03:03:34.310Z,92
2023-05-14T03:04:01.391Z,92
2023-05-14T03:04:32.101Z,92
2023-05-14T03:05:05.075Z,93
2023-05-14T03:05:33.889Z,93
2023-05-14T03:05:52.122Z,93
2023-05-14T03:06:30.273Z,93
2023-05-14T03:06:34.576Z,93
2023-05-14T03:06:56.100Z,93
2023-05-14T03:07:28.119Z,93
2023-05-14T03:08:06.283Z,93
2023-05-14T03:08:16.891Z,93
2023-05-14T03:08:48.030Z,93
2023-05-14T03:09:21.099Z,93
2023-05-14T03:09:38.572Z,93
2023-05-14T03:10:08.071Z,93
2023-05-14T03:10:33.782Z,93
2023-05-14T03:10:56.045Z,93
2023-05-14T03:11:28.991Z,93
2023-05-14T03:12:00.026Z,93
2023-05-14T03:12:32.994Z,93
2023-05-14T03:13:04.172Z,93
2023-05-14T03:13:34.653Z,93
2023-05-14T03:13:52.112Z,93
2023-05-14T03:14:24.124Z,93
2023-05-14T03:14:42.214Z,93
2023-05-14T03:15:20.657Z,93
2023-05-14T03:15:28.069Z,93
2023-05-14T03:16:00.697Z,93
2023-05-14T03:16:32.242Z,93
2023-05-14T03:17:04.197Z,93
2023-05-14T03:17:33.830Z,93
2023-05-14T03:17:53.158Z,93
2023-05-14T03:18:24.182Z,93
2023-05-14T03:18:41.308Z,94
2023-05-14T03:19:12.095Z,93
2023-05-14T03:19:33.892Z,93
2023-05-14T03:20:01.921Z,93
2023-05-14T03:20:32.045Z,93
2023-05-14T03:21:05.142Z,94
2023-05-14T03:21:33.911Z,93
2023-05-14T03:21:52.119Z,93
2023-05-14T03:22:24.095Z,93
2023-05-14T03:22:41.256Z,93
2023-05-14T03:23:13.235Z,93
2023-05-14T03:23:35.061Z,93
2023-05-14T03:24:00.023Z,94
2023-05-14T03:24:32.071Z,94
2023-05-14T03:25:04.106Z,93
2023-05-14T03:25:33.854Z,93
2023-05-14T03:25:52.050Z,93
2023-05-14T03:26:25.235Z,93
2023-05-14T03:26:41.475Z,93
2023-05-14T03:27:12.130Z,93
2023-05-14T03:27:33.798Z,93
2023-05-14T03:28:00.038Z,93
2023-05-14T03:28:32.971Z,93
2023-05-14T03:29:04.167Z,93
2023-05-14T03:29:34.779Z,93
2023-05-14T03:29:52.028Z,94
2023-05-14T03:30:24.517Z,94
2023-05-14T03:30:42.222Z,93
2023-05-14T03:31:12.078Z,94
2023-05-14T03:31:33.769Z,93
2023-05-14T03:32:00.033Z,94
2023-05-14T03:32:34.638Z,94
2023-05-14T03:33:04.994Z,93
2023-05-14T03:33:33.791Z,93
2023-05-14T03:33:52.060Z,94
2023-05-14T03:34:24.003Z,94
2023-05-14T03:34:41.304Z,94
2023-05-14T03:35:13.297Z,94
2023-05-14T03:35:33.834Z,94
2023-05-14T03:36:00.106Z,94
2023-05-14T03:36:32.066Z,94
2023-05-14T03:37:04.126Z,94
2023-05-14T03:37:33.796Z,94
2023-05-14T03:37:52.036Z,94
2023-05-14T03:38:25.282Z,94
2023-05-14T03:38:58.333Z,94
2023-05-14T03:39:28.911Z,94
2023-05-14T03:40:01.280Z,94
2023-05-14T03:40:32.945Z,94
2023-05-14T03:41:04.111Z,94
2023-05-14T03:41:34.993Z,94
2023-05-14T03:42:08.018Z,94
2023-05-14T03:42:33.759Z,94
2023-05-14T03:42:56.037Z,94
2023-05-14T03:43:28.089Z,94
2023-05-14T03:44:01.609Z,94
2023-05-14T03:44:32.147Z,94
2023-05-14T03:45:05.064Z,94
2023-05-14T03:45:33.888Z,94
2023-05-14T03:45:52.056Z,94
2023-05-14T03:46:24.130Z,94
2023-05-14T03:46:41.367Z,94
2023-05-14T03:47:13.413Z,94
2023-05-14T03:47:33.909Z,94
2023-05-14T03:48:00.163Z,94
2023-05-14T03:48:32.266Z,94
2023-05-14T03:49:04.206Z,94
2023-05-14T03:49:33.813Z,94
2023-05-14T03:49:52.247Z,94
2023-05-14T03:50:25.652Z,94
2023-05-14T03:50:57.121Z,95
2023-05-14T03:51:29.058Z,94
2023-05-14T03:52:00.121Z,94
2023-05-14T03:52:32.934Z,94
2023-05-14T03:53:04.105Z,94
2023-05-14T03:53:34.739Z,94
2023-05-14T03:53:52.080Z,94
2023-05-14T03:54:24.063Z,94
2023-05-14T03:54:42.337Z,94
2023-05-14T03:55:12.108Z,94
2023-05-14T03:55:34.284Z,94
2023-05-14T03:56:00.063Z,94
2023-05-14T03:56:32.151Z,94
2023-05-14T03:57:05.262Z,94
2023-05-14T03:57:34.352Z,94
2023-05-14T03:57:52.053Z,94
2023-05-14T03:58:24.135Z,94
2023-05-14T03:58:41.297Z,94
2023-05-14T03:59:13.377Z,94
2023-05-14T03:59:34.010Z,94
2023-05-14T04:00:00.057Z,94
2023-05-14T04:00:32.157Z,94
2023-05-14T04:01:04.109Z,94
2023-05-14T04:01:33.817Z,94
2023-05-14T04:01:52.248Z,94
2023-05-14T04:02:25.415Z,94
2023-05-14T04:02:57.315Z,94
2023-05-14T04:03:29.113Z,94
2023-05-14T04:04:00.179Z,94
2023-05-14T04:04:33.162Z,94
2023-05-14T04:05:04.094Z,94
2023-05-14T04:05:34.696Z,94
2023-05-14T04:05:52.139Z,94
2023-05-14T04:06:24.161Z,94
2023-05-14T04:06:42.208Z,94
2023-05-14T04:07:12.017Z,94
2023-05-14T04:07:33.821Z,94
2023-05-14T04:08:00.096Z,94
2023-05-14T04:08:32.246Z,94
2023-05-14T04:09:05.168Z,94
2023-05-14T04:09:33.869Z,94
2023-05-14T04:09:52.137Z,94
2023-05-14T04:10:24.279Z,94
2023-05-14T04:10:41.304Z,94
2023-05-14T04:11:13.310Z,95
2023-05-14T04:11:33.820Z,94
2023-05-14T04:12:00.074Z,94
2023-05-14T04:12:32.167Z,94
2023-05-14T04:13:04.135Z,94
2023-05-14T04:13:33.909Z,94
2023-05-14T04:13:52.048Z,94
2023-05-14T04:14:25.345Z,95
2023-05-14T04:14:57.152Z,95
2023-05-14T04:15:29.148Z,94
2023-05-14T04:16:00.107Z,94
2023-05-14T04:16:33.012Z,94
2023-05-14T04:17:04.105Z,94
2023-05-14T04:17:35.279Z,94
2023-05-14T04:17:52.125Z,94
2023-05-14T04:18:24.029Z,94
2023-05-14T04:18:42.594Z,94
2023-05-14T04:19:12.262Z,95
2023-05-14T04:19:33.773Z,95
2023-05-14T04:20:11.948Z,95
2023-05-14T04:20:16.214Z,95
2023-05-14T04:20:33.845Z,95
2023-05-14T04:21:05.105Z,95
2023-05-14T04:21:33.791Z,95
2023-05-14T04:21:52.106Z,95
2023-05-14T04:22:24.109Z,95
2023-05-14T04:22:41.281Z,95
2023-05-14T04:23:13.424Z,95
2023-05-14T04:23:33.866Z,95
2023-05-14T04:24:00.099Z,95
2023-05-14T04:24:32.125Z,95
2023-05-14T04:25:04.128Z,95
2023-05-14T04:25:34.089Z,95
2023-05-14T04:25:52.099Z,95
2023-05-14T04:26:25.806Z,95
2023-05-14T04:26:56.132Z,95
2023-05-14T04:27:29.092Z,95
2023-05-14T04:28:00.124Z,95
2023-05-14T04:28:32.859Z,95
2023-05-14T04:29:04.166Z,95
2023-05-14T04:29:34.795Z,95
2023-05-14T04:29:52.241Z,95
2023-05-14T04:30:24.462Z,95
2023-05-14T04:30:42.280Z,95
2023-05-14T04:31:12.060Z,95
2023-05-14T04:31:33.855Z,95
2023-05-14T04:32:00.163Z,95
2023-05-14T04:32:32.150Z,95
2023-05-14T04:33:04.895Z,95
2023-05-14T04:33:33.959Z,95
2023-05-14T04:33:52.000Z,95
2023-05-14T04:34:24.184Z,95
2023-05-14T04:34:41.484Z,95
2023-05-14T04:35:13.492Z,95
2023-05-14T04:35:33.777Z,95
2023-05-14T04:35:59.992Z,95
2023-05-14T04:36:32.065Z,95
2023-05-14T04:37:04.074Z,95
2023-05-14T04:37:33.838Z,95
2023-05-14T04:37:52.142Z,95
2023-05-14T04:38:25.274Z,95
2023-05-14T04:38:41.853Z,95
2023-05-14T04:39:20.016Z,95
2023-05-14T04:39:30.438Z,95
2023-05-14T04:40:00.166Z,95
2023-05-14T04:40:32.949Z,95
2023-05-14T04:41:04.341Z,95
2023-05-14T04:41:35.422Z,95
2023-05-14T04:41:52.086Z,95
2023-05-14T04:42:24.054Z,95
2023-05-14T04:42:42.090Z,95
2023-05-14T04:43:12.290Z,95
2023-05-14T04:43:33.837Z,95
2023-05-14T04:44:00.101Z,95
2023-05-14T04:44:32.020Z,95
2023-05-14T04:45:05.040Z,95
2023-05-14T04:45:34.467Z,95
2023-05-14T04:45:52.146Z,95
2023-05-14T04:46:24.225Z,95
2023-05-14T04:46:41.944Z,95
2023-05-14T04:47:13.299Z,95
2023-05-14T04:47:34.178Z,95
2023-05-14T04:48:00.141Z,95
2023-05-14T04:48:32.209Z,95
2023-05-14T04:49:04.147Z,95
2023-05-14T04:49:33.792Z,95
2023-05-14T04:49:51.968Z,95
2023-05-14T04:50:25.705Z,95
2023-05-14T04:50:43.076Z,95
2023-05-14T04:51:12.000Z,95
2023-05-14T04:51:33.846Z,95
2023-05-14T04:51:59.988Z,95
2023-05-14T04:52:32.897Z,95
2023-05-14T04:53:04.115Z,95
2023-05-14T04:53:34.664Z,95
2023-05-14T04:53:52.552Z,95
2023-05-14T04:54:24.120Z,95
2023-05-14T04:54:42.314Z,95
2023-05-14T04:55:11.977Z,95
2023-05-14T04:55:33.804Z,95
2023-05-14T04:56:00.029Z,95
2023-05-14T04:56:31.976Z,95
2023-05-14T04:57:05.030Z,95
2023-05-14T04:57:33.823Z,95
2023-05-14T04:57:52.086Z,95
2023-05-14T04:58:24.044Z,95
2023-05-14T04:58:41.292Z,95
2023-05-14T04:59:13.514Z,95
2023-05-14T04:59:33.781Z,95
2023-05-14T05:00:03.459Z,95
2023-05-14T05:00:32.042Z,95
2023-05-14T05:01:04.616Z,95
2023-05-14T05:01:33.808Z,95
2023-05-14T05:01:51.966Z,95
2023-05-14T05:02:25.323Z,95
2023-05-14T05:02:41.906Z,95
2023-05-14T05:03:12.129Z,95
2023-05-14T05:03:33.990Z,95
2023-05-14T05:04:00.013Z,95
2023-05-14T05:04:33.054Z,95
2023-05-14T05:05:04.050Z,95
2023-05-14T05:05:34.833Z,95
2023-05-14T05:05:51.959Z,95
2023-05-14T05:06:24.155Z,95
2023-05-14T05:06:42.100Z,95
2023-05-14T05:07:13.563Z,95
2023-05-14T05:07:33.783Z,94
2023-05-14T05:08:00.021Z,94
2023-05-14T05:08:32.062Z,94
2023-05-14T05:09:05.052Z,94
2023-05-14T05:09:33.787Z,94
2023-05-14T05:09:51.981Z,94
2023-05-14T05:10:24.510Z,94
2023-05-14T05:10:41.616Z,94
2023-05-14T05:11:13.279Z,94
2023-05-14T05:11:33.776Z,94
2023-05-14T05:12:00.120Z,94
2023-05-14T05:12:31.975Z,94
2023-05-14T05:13:04.076Z,94
2023-05-14T05:13:34.583Z,94
2023-05-14T05:13:52.024Z,94
2023-05-14T05:14:25.275Z,94
2023-05-14T05:14:42.019Z,94
2023-05-14T05:15:12.173Z,94
2023-05-14T05:15:33.788Z,94
2023-05-14T05:16:00.155Z,94
2023-05-14T05:16:32.233Z,93
2023-05-14T05:17:04.949Z,93
2023-05-14T05:17:33.833Z,93
2023-05-14T05:17:52.110Z,93
2023-05-14T05:18:24.043Z,93
2023-05-14T05:18:41.393Z,93
2023-05-14T05:19:13.434Z,93
2023-05-14T05:19:43.087Z,93
2023-05-14T05:20:00.065Z,93
2023-05-14T05:20:33.735Z,93
2023-05-14T05:21:04.045Z,93
2023-05-14T05:21:35.223Z,93
2023-05-14T05:21:52.010Z,93
2023-05-14T05:22:25.307Z,93
2023-05-14T05:22:41.894Z,93
2023-05-14T05:23:12.016Z,93
2023-05-14T05:23:34.161Z,93
2023-05-14T05:24:00.059Z,93
2023-05-14T05:24:33.073Z,92
2023-05-14T05:25:03.987Z,92
2023-05-14T05:25:34.684Z,92
2023-05-14T05:25:52.073Z,92
2023-05-14T05:26:24.066Z,92
2023-05-14T05:26:43.364Z,92
2023-05-14T05:27:12.079Z,92
2023-05-14T05:27:33.847Z,92
2023-05-14T05:28:00.063Z,92
2023-05-14T05:28:31.950Z,92
2023-05-14T05:29:05.088Z,92
2023-05-14T05:29:33.748Z,92
2023-05-14T05:29:52.086Z,92
2023-05-14T05:30:24.337Z,92
2023-05-14T05:30:41.344Z,92
2023-05-14T05:31:13.364Z,92
2023-05-14T05:31:33.808Z,92
2023-05-14T05:32:00.040Z,92
2023-05-14T05:32:32.009Z,91
2023-05-14T05:33:04.154Z,91
2023-05-14T05:33:34.065Z,91
2023-05-14T05:33:52.043Z,91
2023-05-14T05:34:25.676Z,91
2023-05-14T05:34:41.750Z,91
2023-05-14T05:35:12.070Z,91
2023-05-14T05:35:33.910Z,91
2023-05-14T05:36:00.149Z,91
2023-05-14T05:36:33.010Z,91
2023-05-14T05:37:04.025Z,91
2023-05-14T05:37:35.266Z,91
2023-05-14T05:37:51.761Z,91
2023-05-14T05:38:24.148Z,91
2023-05-14T05:38:42.270Z,91
2023-05-14T05:39:12.103Z,91
2023-05-14T05:39:33.890Z,91
2023-05-14T05:39:59.995Z,91
2023-05-14T05:40:31.987Z,91
2023-05-14T05:41:06.050Z,90
2023-05-14T05:41:34.118Z,90
2023-05-14T05:41:52.242Z,90
2023-05-14T05:42:30.395Z,90
2023-05-14T05:42:34.568Z,90
2023-05-14T05:42:55.972Z,90
2023-05-14T05:43:27.982Z,90
2023-05-14T05:44:00.041Z,90
2023-05-14T05:44:31.971Z,90
2023-05-14T05:45:04.055Z,91
2023-05-14T05:45:34.385Z,91
2023-05-14T05:45:53.894Z,91
2023-05-14T05:46:23.985Z,91
2023-05-14T05:46:41.322Z,90
2023-05-14T05:47:12.041Z,90
2023-05-14T05:47:33.790Z,90
2023-05-14T05:48:01.556Z,90
2023-05-14T05:48:31.950Z,90
2023-05-14T05:49:06.083Z,90
2023-05-14T05:49:33.750Z,90
2023-05-14T05:49:52.006Z,90
2023-05-14T05:50:24.199Z,90
2023-05-14T05:50:41.312Z,90
2023-05-14T05:51:13.272Z,90
2023-05-14T05:51:34.194Z,90
2023-05-14T05:52:00.083Z,90
2023-05-14T05:52:31.985Z,90
2023-05-14T05:53:04.063Z,90
2023-05-14T05:53:33.800Z,90
2023-05-14T05:53:52.005Z,90
2023-05-14T05:54:26.061Z,90
2023-05-14T05:54:41.930Z,90
2023-05-14T05:55:12.127Z,90
2023-05-14T05:55:33.866Z,90
2023-05-14T05:56:00.199Z,90
2023-05-14T05:56:32.982Z,90
2023-05-14T05:57:03.996Z,90
2023-05-14T05:57:34.886Z,90
2023-05-14T05:58:07.991Z,90
2023-05-14T05:58:34.062Z,90
2023-05-14T05:58:56.000Z,90
2023-05-14T05:59:27.963Z,90
2023-05-14T06:00:02.862Z,90
2023-05-14T06:00:31.997Z,90
2023-05-14T06:01:05.002Z,90
2023-05-14T06:01:33.821Z,90
2023-05-14T06:01:52.051Z,90
2023-05-14T06:02:24.092Z,90
2023-05-14T06:02:41.446Z,90
2023-05-14T06:03:13.300Z,90
2023-05-14T06:03:33.748Z,90
2023-05-14T06:04:00.054Z,90
2023-05-14T06:04:31.975Z,90
2023-05-14T06:05:04.009Z,90
2023-05-14T06:05:33.796Z,90
2023-05-14T06:05:52.025Z,90
2023-05-14T06:06:25.234Z,90
2023-05-14T06:06:41.794Z,90
2023-05-14T06:07:11.938Z,90
2023-05-14T06:07:33.768Z,90
2023-05-14T06:08:00.075Z,90
2023-05-14T06:08:32.851Z,90
2023-05-14T06:09:04.166Z,90
2023-05-14T06:09:37.245Z,90
2023-05-14T06:10:07.924Z,89
2023-05-14T06:10:34.262Z,89
2023-05-14T06:10:55.938Z,89
2023-05-14T06:11:28.076Z,89
2023-05-14T06:12:02.109Z,89
2023-05-14T06:12:32.150Z,89
2023-05-14T06:13:04.830Z,89
2023-05-14T06:13:34.243Z,89
2023-05-14T06:13:51.971Z,89
2023-05-14T06:14:23.915Z,89
2023-05-14T06:14:56.644Z,89
2023-05-14T06:15:28.022Z,89
2023-05-14T06:15:59.996Z,88
2023-05-14T06:16:32.086Z,88
2023-05-14T06:17:04.038Z,88
2023-05-14T06:17:33.852Z,88
2023-05-14T06:17:52.041Z,88
2023-05-14T06:18:25.284Z,88
2023-05-14T06:18:56.035Z,88
2023-05-14T06:19:29.010Z,88
2023-05-14T06:20:00.219Z,88
2023-05-14T06:20:33.853Z,88
2023-05-14T06:21:04.010Z,88
2023-05-14T06:21:34.743Z,87
2023-05-14T06:21:51.954Z,87
2023-05-14T06:22:23.960Z,88
2023-05-14T06:22:42.082Z,88
2023-05-14T06:23:12.444Z,88
2023-05-14T06:23:34.037Z,88
2023-05-14T06:24:00.055Z,88
2023-05-14T06:24:32.062Z,88
2023-05-14T06:25:05.019Z,88
2023-05-14T06:25:33.929Z,88